sensor_id;sensor_type;location;lat;lon;timestamp;P1;durP1;ratioP1;P2;durP2;ratioP2
38787;SDS011;24536;45.488;12.238;2022-12-29T00:01:37;34.13;;;20.80;;
38787;SDS011;24536;45.488;12.238;2022-12-29T00:04:03;33.00;;;21.10;;
38787;SDS011;24536;45.488;12.238;2022-12-29T00:06:29;31.98;;;21.58;;
38787;SDS011;24536;45.488;12.238;2022-12-29T00:08:56;35.15;;;21.67;;
38787;SDS011;24536;45.488;12.238;2022-12-29T00:11:25;32.15;;;21.38;;
38787;SDS011;24536;45.488;12.238;2022-12-29T00:13:53;31.20;;;20.92;;
38787;SDS011;24536;45.488;12.238;2022-12-29T00:16:37;31.88;;;20.83;;
38787;SDS011;24536;45.488;12.238;2022-12-29T00:19:05;33.50;;;22.42;;
38787;SDS011;24536;45.488;12.238;2022-12-29T00:21:31;31.35;;;20.35;;
38787;SDS011;24536;45.488;12.238;2022-12-29T00:29:50;31.55;;;20.92;;
38787;SDS011;24536;45.488;12.238;2022-12-29T00:32:35;30.67;;;21.23;;
38787;SDS011;24536;45.488;12.238;2022-12-29T00:35:25;34.15;;;21.15;;
38787;SDS011;24536;45.488;12.238;2022-12-29T00:38:04;33.03;;;20.85;;
38787;SDS011;24536;45.488;12.238;2022-12-29T00:40:51;27.80;;;19.30;;
38787;SDS011;24536;45.488;12.238;2022-12-29T00:43:35;32.70;;;20.77;;
38787;SDS011;24536;45.488;12.238;2022-12-29T00:46:19;29.10;;;19.80;;
38787;SDS011;24536;45.488;12.238;2022-12-29T00:48:45;27.73;;;20.02;;
38787;SDS011;24536;45.488;12.238;2022-12-29T00:51:29;26.40;;;18.88;;
38787;SDS011;24536;45.488;12.238;2022-12-29T00:53:55;28.17;;;18.85;;
38787;SDS011;24536;45.488;12.238;2022-12-29T00:56:21;29.42;;;18.15;;
38787;SDS011;24536;45.488;12.238;2022-12-29T00:58:46;27.27;;;17.75;;
38787;SDS011;24536;45.488;12.238;2022-12-29T01:01:12;26.17;;;17.75;;
38787;SDS011;24536;45.488;12.238;2022-12-29T01:03:38;27.75;;;18.17;;
38787;SDS011;24536;45.488;12.238;2022-12-29T01:06:04;25.92;;;17.10;;
38787;SDS011;24536;45.488;12.238;2022-12-29T01:08:32;24.85;;;18.02;;
38787;SDS011;24536;45.488;12.238;2022-12-29T01:11:08;23.17;;;15.90;;
38787;SDS011;24536;45.488;12.238;2022-12-29T01:13:36;27.50;;;17.00;;
38787;SDS011;24536;45.488;12.238;2022-12-29T01:16:03;26.92;;;17.05;;
38787;SDS011;24536;45.488;12.238;2022-12-29T01:18:30;22.63;;;16.35;;
38787;SDS011;24536;45.488;12.238;2022-12-29T01:21:00;22.73;;;15.70;;
38787;SDS011;24536;45.488;12.238;2022-12-29T01:23:27;22.33;;;15.73;;
38787;SDS011;24536;45.488;12.238;2022-12-29T01:25:54;25.30;;;17.95;;
38787;SDS011;24536;45.488;12.238;2022-12-29T01:28:21;33.60;;;20.75;;
38787;SDS011;24536;45.488;12.238;2022-12-29T01:30:47;31.48;;;20.85;;
38787;SDS011;24536;45.488;12.238;2022-12-29T01:33:13;28.60;;;19.23;;
38787;SDS011;24536;45.488;12.238;2022-12-29T01:35:39;30.42;;;20.98;;
38787;SDS011;24536;45.488;12.238;2022-12-29T01:38:05;26.83;;;19.73;;
38787;SDS011;24536;45.488;12.238;2022-12-29T01:40:30;33.50;;;20.60;;
38787;SDS011;24536;45.488;12.238;2022-12-29T01:42:56;31.17;;;21.40;;
38787;SDS011;24536;45.488;12.238;2022-12-29T01:45:22;32.58;;;20.85;;
38787;SDS011;24536;45.488;12.238;2022-12-29T01:50:22;31.90;;;19.73;;
38787;SDS011;24536;45.488;12.238;2022-12-29T01:53:04;27.77;;;19.42;;
38787;SDS011;24536;45.488;12.238;2022-12-29T01:55:46;31.10;;;21.02;;
38787;SDS011;24536;45.488;12.238;2022-12-29T01:58:16;25.63;;;19.27;;
38787;SDS011;24536;45.488;12.238;2022-12-29T02:00:45;28.92;;;20.45;;
38787;SDS011;24536;45.488;12.238;2022-12-29T02:03:11;31.52;;;19.65;;
38787;SDS011;24536;45.488;12.238;2022-12-29T02:08:09;28.65;;;18.80;;
38787;SDS011;24536;45.488;12.238;2022-12-29T02:10:37;28.20;;;19.60;;
38787;SDS011;24536;45.488;12.238;2022-12-29T02:13:05;27.02;;;18.20;;
38787;SDS011;24536;45.488;12.238;2022-12-29T02:19:03;26.60;;;18.08;;
38787;SDS011;24536;45.488;12.238;2022-12-29T02:24:16;29.67;;;19.48;;
38787;SDS011;24536;45.488;12.238;2022-12-29T02:41:21;30.63;;;19.52;;
38787;SDS011;24536;45.488;12.238;2022-12-29T02:46:35;34.35;;;21.35;;
38787;SDS011;24536;45.488;12.238;2022-12-29T02:49:28;25.60;;;16.63;;
38787;SDS011;24536;45.488;12.238;2022-12-29T02:52:06;30.40;;;17.67;;
38787;SDS011;24536;45.488;12.238;2022-12-29T02:54:40;25.40;;;16.40;;
38787;SDS011;24536;45.488;12.238;2022-12-29T02:57:14;24.67;;;16.75;;
38787;SDS011;24536;45.488;12.238;2022-12-29T02:59:46;21.50;;;15.23;;
38787;SDS011;24536;45.488;12.238;2022-12-29T03:05:15;22.60;;;15.77;;
38787;SDS011;24536;45.488;12.238;2022-12-29T03:13:28;23.40;;;15.57;;
38787;SDS011;24536;45.488;12.238;2022-12-29T03:21:42;23.60;;;15.65;;
38787;SDS011;24536;45.488;12.238;2022-12-29T03:24:31;23.13;;;15.00;;
38787;SDS011;24536;45.488;12.238;2022-12-29T03:27:01;24.45;;;16.45;;
38787;SDS011;24536;45.488;12.238;2022-12-29T03:29:34;29.27;;;16.73;;
38787;SDS011;24536;45.488;12.238;2022-12-29T03:32:03;25.00;;;16.02;;
38787;SDS011;24536;45.488;12.238;2022-12-29T03:34:30;22.73;;;15.57;;
38787;SDS011;24536;45.488;12.238;2022-12-29T03:37:03;24.40;;;14.88;;
38787;SDS011;24536;45.488;12.238;2022-12-29T03:39:41;24.88;;;16.17;;
38787;SDS011;24536;45.488;12.238;2022-12-29T03:42:14;25.48;;;17.60;;
38787;SDS011;24536;45.488;12.238;2022-12-29T03:44:46;30.33;;;15.10;;
38787;SDS011;24536;45.488;12.238;2022-12-29T03:47:12;24.10;;;16.00;;
38787;SDS011;24536;45.488;12.238;2022-12-29T03:49:39;23.83;;;15.60;;
38787;SDS011;24536;45.488;12.238;2022-12-29T03:52:05;23.80;;;16.75;;
38787;SDS011;24536;45.488;12.238;2022-12-29T03:54:31;26.85;;;17.73;;
38787;SDS011;24536;45.488;12.238;2022-12-29T03:56:57;25.80;;;16.42;;
38787;SDS011;24536;45.488;12.238;2022-12-29T03:59:23;24.60;;;15.88;;
38787;SDS011;24536;45.488;12.238;2022-12-29T04:01:49;22.58;;;14.95;;
38787;SDS011;24536;45.488;12.238;2022-12-29T04:04:15;24.30;;;15.05;;
38787;SDS011;24536;45.488;12.238;2022-12-29T04:06:40;23.85;;;17.08;;
38787;SDS011;24536;45.488;12.238;2022-12-29T04:09:06;20.95;;;14.38;;
38787;SDS011;24536;45.488;12.238;2022-12-29T04:11:32;22.20;;;14.93;;
38787;SDS011;24536;45.488;12.238;2022-12-29T04:13:58;21.23;;;13.65;;
38787;SDS011;24536;45.488;12.238;2022-12-29T04:16:24;21.23;;;15.00;;
38787;SDS011;24536;45.488;12.238;2022-12-29T04:18:50;23.00;;;14.88;;
38787;SDS011;24536;45.488;12.238;2022-12-29T04:21:15;24.98;;;15.20;;
38787;SDS011;24536;45.488;12.238;2022-12-29T04:23:41;24.95;;;16.80;;
38787;SDS011;24536;45.488;12.238;2022-12-29T04:26:07;22.60;;;15.23;;
38787;SDS011;24536;45.488;12.238;2022-12-29T04:28:34;22.90;;;14.82;;
38787;SDS011;24536;45.488;12.238;2022-12-29T04:31:00;22.38;;;14.45;;
38787;SDS011;24536;45.488;12.238;2022-12-29T04:33:27;24.13;;;15.38;;
38787;SDS011;24536;45.488;12.238;2022-12-29T04:35:53;20.95;;;14.73;;
38787;SDS011;24536;45.488;12.238;2022-12-29T04:38:19;23.67;;;15.27;;
38787;SDS011;24536;45.488;12.238;2022-12-29T04:40:47;21.73;;;15.38;;
38787;SDS011;24536;45.488;12.238;2022-12-29T04:43:13;25.20;;;15.88;;
38787;SDS011;24536;45.488;12.238;2022-12-29T04:45:42;19.85;;;14.38;;
38787;SDS011;24536;45.488;12.238;2022-12-29T04:48:09;21.95;;;15.88;;
38787;SDS011;24536;45.488;12.238;2022-12-29T04:50:35;22.77;;;15.35;;
38787;SDS011;24536;45.488;12.238;2022-12-29T04:53:01;19.73;;;14.00;;
38787;SDS011;24536;45.488;12.238;2022-12-29T04:55:26;23.90;;;15.75;;
38787;SDS011;24536;45.488;12.238;2022-12-29T04:57:52;20.13;;;13.63;;
38787;SDS011;24536;45.488;12.238;2022-12-29T05:00:18;20.73;;;14.20;;
38787;SDS011;24536;45.488;12.238;2022-12-29T05:02:44;21.25;;;13.52;;
38787;SDS011;24536;45.488;12.238;2022-12-29T05:05:10;20.80;;;14.73;;
38787;SDS011;24536;45.488;12.238;2022-12-29T05:07:36;20.35;;;14.00;;
38787;SDS011;24536;45.488;12.238;2022-12-29T05:10:02;19.13;;;13.55;;
38787;SDS011;24536;45.488;12.238;2022-12-29T05:12:32;20.50;;;14.38;;
38787;SDS011;24536;45.488;12.238;2022-12-29T05:14:59;19.17;;;14.27;;
38787;SDS011;24536;45.488;12.238;2022-12-29T05:17:25;20.52;;;13.88;;
38787;SDS011;24536;45.488;12.238;2022-12-29T05:19:51;22.73;;;14.65;;
38787;SDS011;24536;45.488;12.238;2022-12-29T05:22:17;25.27;;;16.23;;
38787;SDS011;24536;45.488;12.238;2022-12-29T05:24:43;23.75;;;15.35;;
38787;SDS011;24536;45.488;12.238;2022-12-29T05:27:08;21.65;;;14.60;;
38787;SDS011;24536;45.488;12.238;2022-12-29T05:29:34;20.42;;;14.25;;
38787;SDS011;24536;45.488;12.238;2022-12-29T05:32:00;21.40;;;14.40;;
38787;SDS011;24536;45.488;12.238;2022-12-29T05:34:25;22.15;;;15.30;;
38787;SDS011;24536;45.488;12.238;2022-12-29T05:36:51;20.85;;;14.30;;
38787;SDS011;24536;45.488;12.238;2022-12-29T05:39:16;22.67;;;14.40;;
38787;SDS011;24536;45.488;12.238;2022-12-29T05:41:42;20.05;;;13.73;;
38787;SDS011;24536;45.488;12.238;2022-12-29T05:44:09;22.05;;;15.05;;
38787;SDS011;24536;45.488;12.238;2022-12-29T05:46:36;19.50;;;13.68;;
38787;SDS011;24536;45.488;12.238;2022-12-29T05:49:02;21.73;;;14.65;;
38787;SDS011;24536;45.488;12.238;2022-12-29T05:51:28;27.42;;;16.80;;
38787;SDS011;24536;45.488;12.238;2022-12-29T05:53:53;22.90;;;15.30;;
38787;SDS011;24536;45.488;12.238;2022-12-29T05:56:19;17.88;;;13.75;;
38787;SDS011;24536;45.488;12.238;2022-12-29T05:58:45;22.48;;;14.52;;
38787;SDS011;24536;45.488;12.238;2022-12-29T06:01:11;18.30;;;13.63;;
38787;SDS011;24536;45.488;12.238;2022-12-29T06:03:37;20.05;;;14.75;;
38787;SDS011;24536;45.488;12.238;2022-12-29T06:06:03;22.73;;;14.88;;
38787;SDS011;24536;45.488;12.238;2022-12-29T06:08:29;20.65;;;14.40;;
38787;SDS011;24536;45.488;12.238;2022-12-29T06:10:54;22.33;;;14.70;;
38787;SDS011;24536;45.488;12.238;2022-12-29T06:13:20;21.58;;;13.93;;
38787;SDS011;24536;45.488;12.238;2022-12-29T06:15:47;21.33;;;14.75;;
38787;SDS011;24536;45.488;12.238;2022-12-29T06:18:14;21.75;;;14.00;;
38787;SDS011;24536;45.488;12.238;2022-12-29T06:20:40;18.45;;;14.02;;
38787;SDS011;24536;45.488;12.238;2022-12-29T06:23:05;23.17;;;13.73;;
38787;SDS011;24536;45.488;12.238;2022-12-29T06:25:31;19.48;;;13.10;;
38787;SDS011;24536;45.488;12.238;2022-12-29T06:27:58;20.98;;;13.88;;
38787;SDS011;24536;45.488;12.238;2022-12-29T06:30:24;19.85;;;13.57;;
38787;SDS011;24536;45.488;12.238;2022-12-29T06:32:50;18.42;;;13.25;;
38787;SDS011;24536;45.488;12.238;2022-12-29T06:35:16;21.25;;;13.68;;
38787;SDS011;24536;45.488;12.238;2022-12-29T06:37:41;18.98;;;13.10;;
38787;SDS011;24536;45.488;12.238;2022-12-29T06:40:08;18.38;;;13.48;;
38787;SDS011;24536;45.488;12.238;2022-12-29T06:42:35;22.52;;;13.77;;
38787;SDS011;24536;45.488;12.238;2022-12-29T06:45:00;18.98;;;13.90;;
38787;SDS011;24536;45.488;12.238;2022-12-29T06:47:26;20.88;;;14.00;;
38787;SDS011;24536;45.488;12.238;2022-12-29T06:49:52;20.45;;;13.90;;
38787;SDS011;24536;45.488;12.238;2022-12-29T06:52:18;21.02;;;14.57;;
38787;SDS011;24536;45.488;12.238;2022-12-29T06:54:43;18.95;;;13.68;;
38787;SDS011;24536;45.488;12.238;2022-12-29T06:57:09;20.67;;;13.68;;
38787;SDS011;24536;45.488;12.238;2022-12-29T06:59:35;22.70;;;13.70;;
38787;SDS011;24536;45.488;12.238;2022-12-29T07:02:00;20.08;;;13.98;;
38787;SDS011;24536;45.488;12.238;2022-12-29T07:04:29;19.58;;;14.27;;
38787;SDS011;24536;45.488;12.238;2022-12-29T07:06:54;20.88;;;14.02;;
38787;SDS011;24536;45.488;12.238;2022-12-29T07:09:21;21.17;;;12.93;;
38787;SDS011;24536;45.488;12.238;2022-12-29T07:11:46;20.88;;;14.32;;
38787;SDS011;24536;45.488;12.238;2022-12-29T07:14:12;21.08;;;14.60;;
38787;SDS011;24536;45.488;12.238;2022-12-29T07:16:38;18.73;;;13.48;;
38787;SDS011;24536;45.488;12.238;2022-12-29T07:19:03;21.65;;;14.73;;
38787;SDS011;24536;45.488;12.238;2022-12-29T07:21:29;20.30;;;14.02;;
38787;SDS011;24536;45.488;12.238;2022-12-29T07:23:55;17.98;;;13.50;;
38787;SDS011;24536;45.488;12.238;2022-12-29T07:26:21;17.10;;;13.07;;
38787;SDS011;24536;45.488;12.238;2022-12-29T07:28:47;21.90;;;14.77;;
38787;SDS011;24536;45.488;12.238;2022-12-29T07:31:20;22.40;;;15.00;;
38787;SDS011;24536;45.488;12.238;2022-12-29T07:33:46;19.67;;;14.80;;
38787;SDS011;24536;45.488;12.238;2022-12-29T07:36:13;18.80;;;14.13;;
38787;SDS011;24536;45.488;12.238;2022-12-29T07:38:39;23.10;;;15.40;;
38787;SDS011;24536;45.488;12.238;2022-12-29T07:41:06;18.90;;;14.38;;
38787;SDS011;24536;45.488;12.238;2022-12-29T07:43:32;20.10;;;15.38;;
38787;SDS011;24536;45.488;12.238;2022-12-29T07:45:58;22.15;;;13.10;;
38787;SDS011;24536;45.488;12.238;2022-12-29T07:48:24;19.45;;;13.60;;
38787;SDS011;24536;45.488;12.238;2022-12-29T07:50:49;21.00;;;14.70;;
38787;SDS011;24536;45.488;12.238;2022-12-29T07:53:15;19.48;;;13.80;;
38787;SDS011;24536;45.488;12.238;2022-12-29T07:55:41;19.20;;;13.40;;
38787;SDS011;24536;45.488;12.238;2022-12-29T07:58:07;21.52;;;14.80;;
38787;SDS011;24536;45.488;12.238;2022-12-29T08:00:33;20.52;;;14.07;;
38787;SDS011;24536;45.488;12.238;2022-12-29T08:02:58;17.80;;;12.35;;
38787;SDS011;24536;45.488;12.238;2022-12-29T08:05:24;22.02;;;14.50;;
38787;SDS011;24536;45.488;12.238;2022-12-29T08:07:50;21.00;;;14.65;;
38787;SDS011;24536;45.488;12.238;2022-12-29T08:10:16;20.55;;;13.70;;
38787;SDS011;24536;45.488;12.238;2022-12-29T08:12:42;20.67;;;13.55;;
38787;SDS011;24536;45.488;12.238;2022-12-29T08:15:08;20.75;;;13.60;;
38787;SDS011;24536;45.488;12.238;2022-12-29T08:17:35;18.05;;;13.38;;
38787;SDS011;24536;45.488;12.238;2022-12-29T08:20:01;20.73;;;14.27;;
38787;SDS011;24536;45.488;12.238;2022-12-29T08:22:27;19.20;;;14.38;;
38787;SDS011;24536;45.488;12.238;2022-12-29T08:24:53;20.13;;;14.65;;
38787;SDS011;24536;45.488;12.238;2022-12-29T08:27:19;22.33;;;13.80;;
38787;SDS011;24536;45.488;12.238;2022-12-29T08:29:44;18.67;;;13.30;;
38787;SDS011;24536;45.488;12.238;2022-12-29T08:32:10;19.85;;;13.98;;
38787;SDS011;24536;45.488;12.238;2022-12-29T08:34:36;20.92;;;13.50;;
38787;SDS011;24536;45.488;12.238;2022-12-29T08:37:02;17.83;;;12.93;;
38787;SDS011;24536;45.488;12.238;2022-12-29T08:39:28;23.70;;;15.38;;
38787;SDS011;24536;45.488;12.238;2022-12-29T08:41:54;19.95;;;14.30;;
38787;SDS011;24536;45.488;12.238;2022-12-29T08:44:20;20.13;;;12.77;;
38787;SDS011;24536;45.488;12.238;2022-12-29T08:46:45;16.60;;;12.13;;
38787;SDS011;24536;45.488;12.238;2022-12-29T08:49:11;22.63;;;15.32;;
38787;SDS011;24536;45.488;12.238;2022-12-29T08:51:37;25.80;;;15.05;;
38787;SDS011;24536;45.488;12.238;2022-12-29T08:54:03;19.35;;;13.05;;
38787;SDS011;24536;45.488;12.238;2022-12-29T08:56:29;21.13;;;14.45;;
38787;SDS011;24536;45.488;12.238;2022-12-29T08:58:55;19.73;;;13.65;;
38787;SDS011;24536;45.488;12.238;2022-12-29T09:01:21;15.70;;;12.55;;
38787;SDS011;24536;45.488;12.238;2022-12-29T09:03:47;20.98;;;14.52;;
38787;SDS011;24536;45.488;12.238;2022-12-29T09:06:15;20.15;;;15.13;;
38787;SDS011;24536;45.488;12.238;2022-12-29T09:08:41;21.40;;;15.55;;
38787;SDS011;24536;45.488;12.238;2022-12-29T09:11:12;20.77;;;13.88;;
38787;SDS011;24536;45.488;12.238;2022-12-29T09:13:41;19.02;;;12.85;;
38787;SDS011;24536;45.488;12.238;2022-12-29T09:16:06;18.33;;;12.90;;
38787;SDS011;24536;45.488;12.238;2022-12-29T09:18:32;17.52;;;12.63;;
38787;SDS011;24536;45.488;12.238;2022-12-29T09:20:59;21.92;;;12.55;;
38787;SDS011;24536;45.488;12.238;2022-12-29T09:23:26;18.17;;;13.30;;
38787;SDS011;24536;45.488;12.238;2022-12-29T09:25:52;21.20;;;14.07;;
38787;SDS011;24536;45.488;12.238;2022-12-29T09:28:18;17.35;;;12.98;;
38787;SDS011;24536;45.488;12.238;2022-12-29T09:30:45;17.00;;;12.43;;
38787;SDS011;24536;45.488;12.238;2022-12-29T09:33:11;22.92;;;15.68;;
38787;SDS011;24536;45.488;12.238;2022-12-29T09:35:40;16.42;;;12.35;;
38787;SDS011;24536;45.488;12.238;2022-12-29T09:38:07;17.58;;;12.88;;
38787;SDS011;24536;45.488;12.238;2022-12-29T09:40:33;19.92;;;13.43;;
38787;SDS011;24536;45.488;12.238;2022-12-29T09:43:02;17.77;;;13.68;;
38787;SDS011;24536;45.488;12.238;2022-12-29T09:48:34;20.33;;;14.77;;
38787;SDS011;24536;45.488;12.238;2022-12-29T09:51:10;15.85;;;12.40;;
38787;SDS011;24536;45.488;12.238;2022-12-29T09:53:42;16.38;;;12.15;;
38787;SDS011;24536;45.488;12.238;2022-12-29T09:56:13;17.27;;;12.48;;
38787;SDS011;24536;45.488;12.238;2022-12-29T09:58:45;16.65;;;12.30;;
38787;SDS011;24536;45.488;12.238;2022-12-29T10:04:25;18.40;;;12.75;;
38787;SDS011;24536;45.488;12.238;2022-12-29T10:10:17;19.55;;;14.95;;
38787;SDS011;24536;45.488;12.238;2022-12-29T10:18:32;18.08;;;12.98;;
38787;SDS011;24536;45.488;12.238;2022-12-29T10:24:10;28.52;;;13.52;;
38787;SDS011;24536;45.488;12.238;2022-12-29T10:26:42;17.25;;;13.65;;
38787;SDS011;24536;45.488;12.238;2022-12-29T10:31:59;19.80;;;13.52;;
38787;SDS011;24536;45.488;12.238;2022-12-29T10:34:38;20.58;;;14.88;;
38787;SDS011;24536;45.488;12.238;2022-12-29T10:40:38;18.10;;;13.82;;
38787;SDS011;24536;45.488;12.238;2022-12-29T10:45:53;21.38;;;13.63;;
38787;SDS011;24536;45.488;12.238;2022-12-29T10:48:25;20.23;;;15.07;;
38787;SDS011;24536;45.488;12.238;2022-12-29T10:50:57;16.98;;;13.38;;
38787;SDS011;24536;45.488;12.238;2022-12-29T10:53:40;21.60;;;15.13;;
38787;SDS011;24536;45.488;12.238;2022-12-29T10:58:54;21.77;;;16.70;;
38787;SDS011;24536;45.488;12.238;2022-12-29T11:01:22;19.52;;;15.55;;
38787;SDS011;24536;45.488;12.238;2022-12-29T11:06:45;20.50;;;15.77;;
38787;SDS011;24536;45.488;12.238;2022-12-29T11:09:15;18.98;;;14.05;;
38787;SDS011;24536;45.488;12.238;2022-12-29T11:11:48;16.83;;;13.23;;
38787;SDS011;24536;45.488;12.238;2022-12-29T11:14:34;18.85;;;14.63;;
38787;SDS011;24536;45.488;12.238;2022-12-29T11:17:01;16.65;;;11.93;;
38787;SDS011;24536;45.488;12.238;2022-12-29T11:19:29;20.38;;;14.50;;
38787;SDS011;24536;45.488;12.238;2022-12-29T11:24:54;20.63;;;15.25;;
38787;SDS011;24536;45.488;12.238;2022-12-29T11:27:29;19.02;;;13.98;;
38787;SDS011;24536;45.488;12.238;2022-12-29T11:29:55;20.50;;;15.02;;
38787;SDS011;24536;45.488;12.238;2022-12-29T11:32:27;20.63;;;15.30;;
38787;SDS011;24536;45.488;12.238;2022-12-29T11:34:57;27.00;;;16.73;;
38787;SDS011;24536;45.488;12.238;2022-12-29T11:37:28;22.60;;;15.68;;
38787;SDS011;24536;45.488;12.238;2022-12-29T11:40:23;21.77;;;15.00;;
38787;SDS011;24536;45.488;12.238;2022-12-29T11:42:51;26.58;;;17.13;;
38787;SDS011;24536;45.488;12.238;2022-12-29T11:45:22;20.70;;;15.65;;
38787;SDS011;24536;45.488;12.238;2022-12-29T11:47:56;22.88;;;17.33;;
38787;SDS011;24536;45.488;12.238;2022-12-29T11:50:35;21.58;;;15.27;;
38787;SDS011;24536;45.488;12.238;2022-12-29T11:53:25;21.58;;;15.57;;
38787;SDS011;24536;45.488;12.238;2022-12-29T11:56:16;22.92;;;15.77;;
38787;SDS011;24536;45.488;12.238;2022-12-29T11:58:45;21.30;;;16.13;;
38787;SDS011;24536;45.488;12.238;2022-12-29T12:01:21;19.67;;;15.07;;
38787;SDS011;24536;45.488;12.238;2022-12-29T12:04:13;22.25;;;16.65;;
38787;SDS011;24536;45.488;12.238;2022-12-29T12:06:49;21.75;;;16.90;;
38787;SDS011;24536;45.488;12.238;2022-12-29T12:09:54;21.80;;;16.38;;
38787;SDS011;24536;45.488;12.238;2022-12-29T12:12:29;22.10;;;16.70;;
38787;SDS011;24536;45.488;12.238;2022-12-29T12:25:51;21.80;;;15.98;;
38787;SDS011;24536;45.488;12.238;2022-12-29T12:30:49;19.88;;;16.50;;
38787;SDS011;24536;45.488;12.238;2022-12-29T12:44:06;21.80;;;17.02;;
38787;SDS011;24536;45.488;12.238;2022-12-29T12:59:30;24.35;;;17.92;;
38787;SDS011;24536;45.488;12.238;2022-12-29T13:02:28;22.88;;;16.77;;
38787;SDS011;24536;45.488;12.238;2022-12-29T13:19:02;22.15;;;17.10;;
38787;SDS011;24536;45.488;12.238;2022-12-29T13:21:47;25.10;;;18.77;;
38787;SDS011;24536;45.488;12.238;2022-12-29T13:24:47;20.60;;;16.45;;
38787;SDS011;24536;45.488;12.238;2022-12-29T13:27:22;21.40;;;16.50;;
38787;SDS011;24536;45.488;12.238;2022-12-29T13:30:20;23.13;;;17.10;;
38787;SDS011;24536;45.488;12.238;2022-12-29T13:41:01;23.30;;;17.65;;
38787;SDS011;24536;45.488;12.238;2022-12-29T13:43:50;22.67;;;17.70;;
38787;SDS011;24536;45.488;12.238;2022-12-29T13:46:20;23.38;;;17.80;;
38787;SDS011;24536;45.488;12.238;2022-12-29T13:48:54;20.95;;;17.48;;
38787;SDS011;24536;45.488;12.238;2022-12-29T13:51:27;23.67;;;17.13;;
38787;SDS011;24536;45.488;12.238;2022-12-29T13:56:20;21.48;;;16.52;;
38787;SDS011;24536;45.488;12.238;2022-12-29T14:02:02;25.55;;;17.40;;
38787;SDS011;24536;45.488;12.238;2022-12-29T14:04:32;23.33;;;18.23;;
38787;SDS011;24536;45.488;12.238;2022-12-29T14:07:04;22.15;;;17.15;;
38787;SDS011;24536;45.488;12.238;2022-12-29T14:12:27;22.48;;;17.35;;
38787;SDS011;24536;45.488;12.238;2022-12-29T14:15:19;24.63;;;18.10;;
38787;SDS011;24536;45.488;12.238;2022-12-29T14:18:01;22.77;;;17.63;;
38787;SDS011;24536;45.488;12.238;2022-12-29T14:20:46;27.60;;;18.60;;
38787;SDS011;24536;45.488;12.238;2022-12-29T14:28:35;26.55;;;18.23;;
38787;SDS011;24536;45.488;12.238;2022-12-29T14:36:37;21.05;;;17.48;;
38787;SDS011;24536;45.488;12.238;2022-12-29T14:42:19;24.17;;;17.77;;
38787;SDS011;24536;45.488;12.238;2022-12-29T14:47:27;26.00;;;18.33;;
38787;SDS011;24536;45.488;12.238;2022-12-29T14:50:02;24.05;;;17.63;;
38787;SDS011;24536;45.488;12.238;2022-12-29T14:52:54;25.35;;;17.92;;
38787;SDS011;24536;45.488;12.238;2022-12-29T14:55:43;22.90;;;17.50;;
38787;SDS011;24536;45.488;12.238;2022-12-29T14:58:20;23.80;;;18.10;;
38787;SDS011;24536;45.488;12.238;2022-12-29T15:06:08;26.98;;;19.17;;
38787;SDS011;24536;45.488;12.238;2022-12-29T15:08:38;26.20;;;19.63;;
38787;SDS011;24536;45.488;12.238;2022-12-29T15:11:14;23.27;;;18.55;;
38787;SDS011;24536;45.488;12.238;2022-12-29T15:13:45;23.65;;;18.38;;
38787;SDS011;24536;45.488;12.238;2022-12-29T15:16:29;25.05;;;18.83;;
38787;SDS011;24536;45.488;12.238;2022-12-29T15:18:58;25.60;;;19.02;;
38787;SDS011;24536;45.488;12.238;2022-12-29T15:21:57;27.00;;;20.05;;
38787;SDS011;24536;45.488;12.238;2022-12-29T15:24:17;23.17;;;18.40;;
38787;SDS011;24536;45.488;12.238;2022-12-29T15:26:45;24.15;;;18.15;;
38787;SDS011;24536;45.488;12.238;2022-12-29T15:32:02;25.17;;;18.95;;
38787;SDS011;24536;45.488;12.238;2022-12-29T15:34:51;22.45;;;18.25;;
38787;SDS011;24536;45.488;12.238;2022-12-29T15:37:27;24.42;;;18.77;;
38787;SDS011;24536;45.488;12.238;2022-12-29T15:39:57;23.27;;;18.88;;
38787;SDS011;24536;45.488;12.238;2022-12-29T15:45:11;24.35;;;18.70;;
38787;SDS011;24536;45.488;12.238;2022-12-29T15:47:38;25.65;;;19.73;;
38787;SDS011;24536;45.488;12.238;2022-12-29T15:52:50;23.63;;;18.38;;
38787;SDS011;24536;45.488;12.238;2022-12-29T15:57:59;25.38;;;18.83;;
38787;SDS011;24536;45.488;12.238;2022-12-29T16:00:31;25.27;;;19.60;;
38787;SDS011;24536;45.488;12.238;2022-12-29T16:03:03;24.63;;;18.80;;
38787;SDS011;24536;45.488;12.238;2022-12-29T16:05:35;26.98;;;19.98;;
38787;SDS011;24536;45.488;12.238;2022-12-29T16:08:02;26.98;;;19.75;;
38787;SDS011;24536;45.488;12.238;2022-12-29T16:10:32;27.23;;;19.52;;
38787;SDS011;24536;45.488;12.238;2022-12-29T16:13:11;26.73;;;20.17;;
38787;SDS011;24536;45.488;12.238;2022-12-29T16:16:09;28.25;;;20.20;;
38787;SDS011;24536;45.488;12.238;2022-12-29T16:18:50;29.27;;;20.65;;
38787;SDS011;24536;45.488;12.238;2022-12-29T16:21:19;27.23;;;19.63;;
38787;SDS011;24536;45.488;12.238;2022-12-29T16:23:50;26.98;;;20.10;;
38787;SDS011;24536;45.488;12.238;2022-12-29T16:26:19;26.63;;;20.80;;
38787;SDS011;24536;45.488;12.238;2022-12-29T16:28:50;26.67;;;20.38;;
38787;SDS011;24536;45.488;12.238;2022-12-29T16:31:21;27.67;;;20.45;;
38787;SDS011;24536;45.488;12.238;2022-12-29T16:33:53;28.42;;;20.17;;
38787;SDS011;24536;45.488;12.238;2022-12-29T16:36:24;26.85;;;20.00;;
38787;SDS011;24536;45.488;12.238;2022-12-29T16:50:36;31.42;;;22.00;;
38787;SDS011;24536;45.488;12.238;2022-12-29T16:53:04;28.20;;;21.27;;
38787;SDS011;24536;45.488;12.238;2022-12-29T16:55:31;29.63;;;21.77;;
38787;SDS011;24536;45.488;12.238;2022-12-29T16:57:57;27.85;;;21.23;;
38787;SDS011;24536;45.488;12.238;2022-12-29T17:00:28;28.23;;;21.17;;
38787;SDS011;24536;45.488;12.238;2022-12-29T17:02:59;29.55;;;22.10;;
38787;SDS011;24536;45.488;12.238;2022-12-29T17:05:28;26.27;;;20.20;;
38787;SDS011;24536;45.488;12.238;2022-12-29T17:07:54;30.83;;;23.02;;
38787;SDS011;24536;45.488;12.238;2022-12-29T17:10:25;29.98;;;21.92;;
38787;SDS011;24536;45.488;12.238;2022-12-29T17:13:11;30.05;;;21.48;;
38787;SDS011;24536;45.488;12.238;2022-12-29T17:15:37;28.85;;;21.15;;
38787;SDS011;24536;45.488;12.238;2022-12-29T17:18:03;30.20;;;21.88;;
38787;SDS011;24536;45.488;12.238;2022-12-29T17:20:29;29.58;;;22.35;;
38787;SDS011;24536;45.488;12.238;2022-12-29T17:22:56;30.17;;;21.45;;
38787;SDS011;24536;45.488;12.238;2022-12-29T17:25:25;25.55;;;20.58;;
38787;SDS011;24536;45.488;12.238;2022-12-29T17:31:01;31.08;;;22.13;;
38787;SDS011;24536;45.488;12.238;2022-12-29T17:33:29;32.50;;;23.00;;
38787;SDS011;24536;45.488;12.238;2022-12-29T17:36:00;26.65;;;21.50;;
38787;SDS011;24536;45.488;12.238;2022-12-29T17:38:30;30.35;;;22.33;;
38787;SDS011;24536;45.488;12.238;2022-12-29T17:40:59;31.77;;;22.52;;
38787;SDS011;24536;45.488;12.238;2022-12-29T17:43:24;29.77;;;21.50;;
38787;SDS011;24536;45.488;12.238;2022-12-29T17:45:54;27.73;;;22.13;;